Terminal Aerodrome Forecast
Issued by NWS Greer, SC

Home | Current Version | Previous Version | Text Only | Print | Product List | Glossary On
Versions: 1 2 3 4 5 6 7 8 9 10 11 12 13 14 15 16 17 18 19 20 21 22 23 24 25 26 27 28 29
000
FTUS42 KGSP 210215 AAB
TAFGSP
TAF AMD
KGSP 210215Z 2102/2124 00000KT P6SM OVC090
     FM210500 10003KT 6SM BR BKN025
     FM210900 15004KT 1 1/2SM BR OVC005
     FM211000 16004KT 1/2SM FG OVC003
     FM211300 17004KT 3/4SM BR OVC003
     FM211700 19006KT P6SM OVC010
     FM212000 19007KT P6SM BKN035=

USA.gov is the U.S. government's official web portal to all federal, state and local government web resources and services.